createdAt,value
2023-01-23T00:00:52.569Z,21.0
2023-01-23T00:11:05.029Z,21.0
2023-01-23T00:16:11.249Z,22.0
2023-01-23T00:21:17.403Z,21.0
2023-01-23T00:26:23.616Z,21.0
2023-01-23T00:31:29.050Z,21.0
2023-01-23T00:36:35.056Z,21.0
2023-01-23T00:41:40.284Z,20.0
2023-01-23T00:46:46.561Z,21.0
2023-01-23T00:51:52.699Z,21.0
2023-01-23T00:56:58.907Z,20.0
2023-01-23T01:02:05.114Z,21.0
2023-01-23T01:07:11.327Z,21.0
2023-01-23T01:12:17.526Z,21.0
2023-01-23T01:17:23.756Z,20.0
2023-01-23T01:22:29.950Z,20.0
2023-01-23T01:27:36.147Z,20.0
2023-01-23T01:32:42.352Z,20.0
2023-01-23T01:37:48.567Z,20.0
2023-01-23T01:42:54.781Z,21.0
2023-01-23T01:48:00.982Z,21.0
2023-01-23T01:53:07.197Z,20.0
2023-01-23T01:58:13.387Z,21.0
2023-01-23T02:03:19.630Z,20.0
2023-01-23T02:08:25.815Z,20.0
2023-01-23T02:13:32.014Z,21.5
2023-01-23T02:18:38.250Z,22.0
2023-01-23T02:23:44.433Z,21.0
2023-01-23T02:28:49.661Z,22.0
2023-01-23T02:33:55.872Z,22.0
2023-01-23T02:39:02.112Z,22.0
2023-01-23T02:44:08.292Z,22.0
2023-01-23T02:49:14.490Z,21.0
2023-01-23T02:54:20.700Z,21.0
2023-01-23T02:59:26.901Z,22.0
2023-01-23T03:04:33.120Z,22.0
2023-01-23T03:09:39.437Z,21.0
2023-01-23T03:14:45.527Z,21.5
2023-01-23T03:19:51.742Z,22.0
2023-01-23T03:24:57.947Z,21.5
2023-01-23T03:30:04.176Z,22.0
2023-01-23T03:35:10.365Z,22.0
2023-01-23T03:40:16.579Z,22.0
2023-01-23T03:45:22.784Z,22.0
2023-01-23T03:50:28.978Z,22.0
2023-01-23T03:55:35.183Z,21.5
2023-01-23T04:00:41.422Z,23.0
2023-01-23T04:05:47.601Z,23.0
2023-01-23T04:10:53.812Z,23.5
2023-01-23T04:15:59.057Z,23.0
2023-01-23T04:21:05.270Z,22.0
2023-01-23T04:26:10.493Z,23.0
2023-01-23T04:31:16.923Z,22.5
2023-01-23T04:36:22.903Z,22.0
2023-01-23T04:41:29.115Z,22.0
2023-01-23T04:46:35.354Z,22.0
2023-01-23T04:51:41.522Z,23.0
2023-01-23T04:56:47.742Z,23.0
2023-01-23T05:01:53.951Z,22.0
2023-01-23T05:07:00.161Z,24.0
2023-01-23T05:12:06.358Z,24.0
2023-01-23T05:17:12.562Z,23.0
2023-01-23T05:27:24.977Z,23.0
2023-01-23T05:32:31.183Z,24.0
2023-01-23T05:37:37.393Z,23.0
2023-01-23T05:42:43.671Z,23.0
2023-01-23T05:47:49.802Z,23.0
2023-01-23T05:52:56.011Z,23.0
2023-01-23T05:58:02.218Z,23.0
2023-01-23T06:03:08.424Z,24.0
2023-01-23T06:08:14.633Z,24.0
2023-01-23T06:13:20.839Z,23.0
2023-01-23T06:18:26.093Z,22.0
2023-01-23T06:23:32.280Z,23.0
2023-01-23T06:28:37.515Z,24.0
2023-01-23T06:33:43.726Z,23.0
2023-01-23T06:38:49.944Z,23.0
2023-01-23T06:43:56.131Z,23.0
2023-01-23T06:49:04.527Z,22.0
2023-01-23T06:54:08.548Z,22.0
2023-01-23T06:59:14.750Z,22.0
2023-01-23T07:04:20.965Z,22.0
2023-01-23T07:09:27.168Z,22.0
2023-01-23T07:14:33.374Z,22.0
2023-01-23T07:19:39.588Z,22.0
2023-01-23T07:24:45.795Z,22.0
2023-01-23T07:29:52.000Z,22.0
2023-01-23T07:34:58.205Z,21.0
2023-01-23T07:40:04.414Z,21.0
2023-01-23T07:45:10.633Z,21.0
2023-01-23T07:50:16.823Z,21.0
2023-01-23T07:55:23.048Z,20.0
2023-01-23T08:00:30.056Z,20.0
2023-01-23T08:05:35.443Z,20.0
2023-01-23T08:10:41.865Z,20.0
2023-01-23T08:15:46.889Z,21.0
2023-01-23T08:20:53.096Z,20.0
2023-01-23T08:25:59.311Z,20.0
2023-01-23T08:31:06.585Z,20.0
2023-01-23T08:36:11.394Z,20.0
2023-01-23T08:41:17.027Z,21.0
2023-01-23T08:46:23.166Z,20.0
2023-01-23T08:51:29.499Z,20.5
2023-01-23T08:56:35.581Z,20.0
2023-01-23T09:01:41.784Z,20.5
2023-01-23T09:06:47.991Z,21.0
2023-01-23T09:11:53.215Z,20.0
2023-01-23T09:16:59.428Z,20.0
2023-01-23T09:22:05.634Z,19.0
2023-01-23T09:27:11.837Z,19.0
2023-01-23T09:32:18.045Z,18.0
2023-01-23T09:37:24.249Z,18.0
2023-01-23T09:42:30.526Z,18.0
2023-01-23T09:47:36.670Z,17.0
2023-01-23T09:52:42.884Z,17.0
2023-01-23T09:57:49.082Z,16.0
2023-01-23T10:02:55.286Z,16.0
2023-01-23T10:08:01.492Z,17.0
2023-01-23T10:13:07.703Z,16.0
2023-01-23T10:18:12.938Z,15.0
2023-01-23T10:23:19.148Z,16.0
2023-01-23T10:28:24.383Z,16.0
2023-01-23T10:33:30.590Z,15.0
2023-01-23T10:38:36.810Z,15.0
2023-01-23T10:43:43.006Z,16.0
2023-01-23T10:48:49.230Z,15.0
2023-01-23T10:53:56.514Z,15.0
2023-01-23T10:59:01.624Z,14.5
2023-01-23T11:04:07.835Z,15.0
2023-01-23T11:09:14.062Z,15.0
2023-01-23T11:14:20.251Z,15.0
2023-01-23T11:19:26.464Z,14.0
2023-01-23T11:24:39.634Z,14.0
2023-01-23T11:29:38.876Z,14.0
2023-01-23T11:34:45.084Z,15.0
2023-01-23T11:39:51.283Z,15.0
2023-01-23T11:44:57.495Z,15.0
2023-01-23T11:50:03.698Z,15.0
2023-01-23T11:55:09.906Z,15.0
2023-01-23T12:00:16.118Z,15.0
2023-01-23T12:05:22.818Z,15.5
2023-01-23T12:10:28.527Z,15.0
2023-01-23T12:15:33.763Z,15.0
2023-01-23T12:20:39.979Z,16.0
2023-01-23T12:25:45.211Z,16.0
2023-01-23T12:30:51.411Z,15.0
2023-01-23T12:35:57.631Z,16.0
2023-01-23T12:41:03.825Z,16.0
2023-01-23T12:46:10.077Z,15.0
2023-01-23T12:51:16.268Z,15.0
2023-01-23T12:56:22.447Z,15.0
2023-01-23T13:01:28.762Z,16.0
2023-01-23T13:06:34.955Z,16.0
2023-01-23T13:11:41.100Z,16.0
2023-01-23T13:16:47.408Z,15.0
2023-01-23T13:21:53.501Z,15.0
2023-01-23T13:26:59.692Z,15.0
2023-01-23T13:32:05.964Z,16.0
2023-01-23T13:37:12.105Z,16.0
2023-01-23T13:42:18.440Z,15.0
2023-01-23T13:47:24.529Z,16.0
2023-01-23T13:52:30.725Z,15.0
2023-01-23T13:57:36.938Z,15.0
2023-01-23T14:02:43.156Z,16.0
2023-01-23T14:07:49.354Z,15.0
2023-01-23T14:12:54.579Z,16.0
2023-01-23T14:18:00.793Z,16.0
2023-01-23T14:23:07.030Z,15.0
2023-01-23T14:28:13.213Z,14.0
2023-01-23T14:33:19.534Z,15.0
2023-01-23T14:38:25.631Z,15.0
2023-01-23T14:43:31.822Z,15.0
2023-01-23T14:48:38.037Z,14.0
2023-01-23T14:53:44.243Z,14.0
2023-01-23T14:58:50.453Z,14.0
2023-01-23T15:03:56.653Z,15.0
2023-01-23T15:09:02.865Z,15.0
2023-01-23T15:14:09.083Z,15.0
2023-01-23T15:19:15.273Z,14.0
2023-01-23T15:24:21.584Z,13.0
2023-01-23T15:29:27.688Z,12.0
2023-01-23T15:34:33.943Z,11.0
2023-01-23T15:39:40.112Z,11.0
2023-01-23T15:44:46.318Z,11.0
2023-01-23T15:49:52.525Z,11.0
2023-01-23T15:54:58.756Z,11.0
2023-01-23T16:00:03.991Z,12.0
2023-01-23T16:05:10.208Z,10.5
2023-01-23T16:10:15.424Z,10.0
2023-01-23T16:15:21.627Z,11.0
2023-01-23T16:20:27.836Z,11.0
2023-01-23T16:25:43.368Z,11.0
2023-01-23T16:30:40.264Z,12.0
2023-01-23T16:35:46.453Z,12.0
2023-01-23T16:40:52.663Z,12.0
2023-01-23T16:45:58.856Z,12.0
2023-01-23T16:51:05.057Z,12.0
2023-01-23T16:56:11.277Z,12.0
2023-01-23T17:01:17.522Z,12.0
2023-01-23T17:06:23.696Z,12.0
2023-01-23T17:11:29.895Z,12.0
2023-01-23T17:16:36.281Z,12.0
2023-01-23T17:21:42.312Z,12.0
2023-01-23T17:26:48.527Z,12.0
2023-01-23T17:31:54.789Z,11.0
2023-01-23T17:37:00.956Z,12.0
2023-01-23T17:42:07.140Z,10.0
2023-01-23T17:47:13.347Z,11.0
2023-01-23T17:52:19.552Z,10.0
2023-01-23T17:57:24.806Z,12.0
2023-01-23T18:02:31.022Z,12.0
2023-01-23T18:07:48.643Z,12.0
2023-01-23T18:12:43.417Z,12.0
2023-01-23T18:17:49.619Z,12.0
2023-01-23T18:22:55.830Z,13.0
2023-01-23T18:28:02.033Z,12.0
2023-01-23T18:33:08.255Z,13.0
2023-01-23T18:38:14.449Z,12.0
2023-01-23T18:43:20.689Z,12.0
2023-01-23T18:48:26.879Z,12.0
2023-01-23T18:53:33.073Z,12.0
2023-01-23T18:58:39.274Z,12.0
2023-01-23T19:03:45.585Z,12.0
2023-01-23T19:08:51.692Z,12.0
2023-01-23T19:13:57.898Z,13.0
2023-01-23T19:19:15.197Z,13.0
2023-01-23T19:24:10.340Z,14.0
2023-01-23T19:29:21.881Z,13.0
2023-01-23T19:34:22.723Z,14.0
2023-01-23T19:39:28.941Z,13.5
2023-01-23T19:44:34.202Z,13.0
2023-01-23T19:49:40.389Z,13.0
2023-01-23T19:54:45.612Z,13.0
2023-01-23T19:59:51.828Z,14.0
2023-01-23T20:04:57.072Z,14.0
2023-01-23T20:15:09.474Z,14.0
2023-01-23T20:20:15.690Z,16.0
2023-01-23T20:25:22.230Z,15.0
2023-01-23T20:30:28.259Z,15.0
2023-01-23T20:35:34.313Z,15.0
2023-01-23T20:40:40.513Z,15.0
2023-01-23T20:45:46.748Z,15.0
2023-01-23T20:50:52.923Z,15.0
2023-01-23T20:55:59.135Z,14.0
2023-01-23T21:01:05.376Z,15.0
2023-01-23T21:06:11.551Z,15.0
2023-01-23T21:11:17.771Z,14.0
2023-01-23T21:21:30.172Z,15.0
2023-01-23T21:26:36.386Z,16.0
2023-01-23T21:31:42.690Z,16.0
2023-01-23T21:36:48.789Z,14.0
2023-01-23T21:41:55.022Z,16.0
2023-01-23T21:47:01.207Z,15.5
2023-01-23T21:52:07.417Z,16.0
2023-01-23T21:57:13.622Z,16.0
2023-01-23T22:02:18.878Z,16.0
2023-01-23T22:07:25.083Z,17.0
2023-01-23T22:12:31.270Z,17.0
2023-01-23T22:17:37.490Z,16.0
2023-01-23T22:22:43.684Z,14.0
2023-01-23T22:27:49.891Z,15.0
2023-01-23T22:32:56.096Z,15.0
2023-01-23T22:38:02.337Z,15.0
2023-01-23T22:43:08.527Z,15.0
2023-01-23T22:48:14.719Z,14.0
2023-01-23T22:53:20.928Z,13.0
2023-01-23T22:58:27.131Z,14.0
2023-01-23T23:03:33.409Z,14.0
2023-01-23T23:08:39.553Z,13.0
2023-01-23T23:13:45.763Z,13.0
2023-01-23T23:18:51.977Z,12.0
2023-01-23T23:23:58.250Z,14.0
2023-01-23T23:29:04.388Z,13.0
2023-01-23T23:34:10.587Z,14.0
2023-01-23T23:39:16.797Z,14.0
2023-01-23T23:44:22.995Z,14.0
2023-01-23T23:49:28.235Z,14.0
2023-01-23T23:54:34.454Z,14.0
2023-01-23T23:59:39.680Z,13.0
